sensor_id;sensor_type;location;lat;lon;timestamp;pressure;altitude;pressure_sealevel;temperature;humidity
6833;BME280;3454;42.654;23.378;2024-02-21T00:00:38;63510.44;;;5.55;100.00
6833;BME280;3454;42.654;23.378;2024-02-21T00:03:04;63495.41;;;5.43;100.00
6833;BME280;3454;42.654;23.378;2024-02-21T00:05:30;63495.19;;;5.41;100.00
6833;BME280;3454;42.654;23.378;2024-02-21T00:07:58;63497.59;;;5.45;100.00
6833;BME280;3454;42.654;23.378;2024-02-21T00:10:24;63495.19;;;5.41;100.00
6833;BME280;3454;42.654;23.378;2024-02-21T00:12:50;63506.63;;;5.51;100.00
6833;BME280;3454;42.654;23.378;2024-02-21T00:15:15;63494.31;;;5.42;100.00
6833;BME280;3454;42.654;23.378;2024-02-21T00:17:42;63500.63;;;5.46;100.00
6833;BME280;3454;42.654;23.378;2024-02-21T00:20:08;63495.41;;;5.43;100.00
6833;BME280;3454;42.654;23.378;2024-02-21T00:22:33;63490.81;;;5.37;100.00
6833;BME280;3454;42.654;23.378;2024-02-21T00:24:59;63508.56;;;5.51;100.00
6833;BME280;3454;42.654;23.378;2024-02-21T00:27:25;63489.72;;;5.36;100.00
6833;BME280;3454;42.654;23.378;2024-02-21T00:29:50;63487.56;;;5.34;100.00
6833;BME280;3454;42.654;23.378;2024-02-21T00:32:16;63491.59;;;5.40;100.00
6833;BME280;3454;42.654;23.378;2024-02-21T00:34:41;63514.22;;;5.58;100.00
6833;BME280;3454;42.654;23.378;2024-02-21T00:37:07;63495.19;;;5.41;100.00
6833;BME280;3454;42.654;23.378;2024-02-21T00:39:32;63493.00;;;5.39;100.00
6833;BME280;3454;42.654;23.378;2024-02-21T00:41:58;63489.72;;;5.36;100.00
6833;BME280;3454;42.654;23.378;2024-02-21T00:44:24;63495.72;;;5.41;100.00
6833;BME280;3454;42.654;23.378;2024-02-21T00:46:50;63486.47;;;5.33;100.00
6833;BME280;3454;42.654;23.378;2024-02-21T00:49:17;63494.31;;;5.42;100.00
6833;BME280;3454;42.654;23.378;2024-02-21T00:51:43;63481.78;;;5.31;100.00
6833;BME280;3454;42.654;23.378;2024-02-21T00:54:09;63482.66;;;5.29;100.00
6833;BME280;3454;42.654;23.378;2024-02-21T00:56:34;63486.16;;;5.35;100.00
6833;BME280;3454;42.654;23.378;2024-02-21T00:59:00;63491.91;;;5.38;100.00
6833;BME280;3454;42.654;23.378;2024-02-21T01:01:26;63496.06;;;5.39;100.00
6833;BME280;3454;42.654;23.378;2024-02-21T01:03:53;63481.78;;;5.31;100.00
6833;BME280;3454;42.654;23.378;2024-02-21T01:06:21;63477.44;;;5.27;100.00
6833;BME280;3454;42.654;23.378;2024-02-21T01:08:47;63478.00;;;5.27;100.00
6833;BME280;3454;42.654;23.378;2024-02-21T01:11:14;63478.00;;;5.27;100.00
6833;BME280;3454;42.654;23.378;2024-02-21T01:13:39;63475.59;;;5.23;100.00
6833;BME280;3454;42.654;23.378;2024-02-21T01:16:05;63467.19;;;5.13;100.00
6833;BME280;3454;42.654;23.378;2024-02-21T01:18:32;63454.56;;;5.05;100.00
6833;BME280;3454;42.654;23.378;2024-02-21T01:20:58;63479.63;;;5.29;100.00
6833;BME280;3454;42.654;23.378;2024-02-21T01:23:24;63487.03;;;5.33;100.00
6833;BME280;3454;42.654;23.378;2024-02-21T01:25:49;63477.44;;;5.27;100.00
6833;BME280;3454;42.654;23.378;2024-02-21T01:28:15;63468.41;;;5.21;100.00
6833;BME280;3454;42.654;23.378;2024-02-21T01:30:41;63466.56;;;5.17;100.00
6833;BME280;3454;42.654;23.378;2024-02-21T01:33:07;63475.03;;;5.22;100.00
6833;BME280;3454;42.654;23.378;2024-02-21T01:35:34;63488.66;;;5.35;100.00
6833;BME280;3454;42.654;23.378;2024-02-21T01:38:00;63479.63;;;5.29;100.00
6833;BME280;3454;42.654;23.378;2024-02-21T01:40:25;63477.22;;;5.24;100.00
6833;BME280;3454;42.654;23.378;2024-02-21T01:42:53;63484.28;;;5.31;100.00
6833;BME280;3454;42.654;23.378;2024-02-21T01:45:20;63481.25;;;5.30;100.00
6833;BME280;3454;42.654;23.378;2024-02-21T01:47:45;63488.88;;;5.37;100.00
6833;BME280;3454;42.654;23.378;2024-02-21T01:50:11;63517.72;;;5.64;100.00
6833;BME280;3454;42.654;23.378;2024-02-21T01:52:39;63513.16;;;5.57;100.00
6833;BME280;3454;42.654;23.378;2024-02-21T01:55:06;63510.09;;;5.57;100.00
6833;BME280;3454;42.654;23.378;2024-02-21T01:57:33;63490.72;;;5.41;100.00
6833;BME280;3454;42.654;23.378;2024-02-21T01:59:59;63493.22;;;5.41;100.00
6833;BME280;3454;42.654;23.378;2024-02-21T02:02:24;63507.94;;;5.55;100.00
6833;BME280;3454;42.654;23.378;2024-02-21T02:04:50;63524.88;;;5.66;100.00
6833;BME280;3454;42.654;23.378;2024-02-21T02:07:17;63527.84;;;5.71;100.00
6833;BME280;3454;42.654;23.378;2024-02-21T02:09:43;63505.97;;;5.55;100.00
6833;BME280;3454;42.654;23.378;2024-02-21T02:12:08;63510.66;;;5.57;100.00
6833;BME280;3454;42.654;23.378;2024-02-21T02:14:34;63521.31;;;5.65;100.00
6833;BME280;3454;42.654;23.378;2024-02-21T02:16:59;63522.06;;;5.68;100.00
6833;BME280;3454;42.654;23.378;2024-02-21T02:19:25;63512.59;;;5.57;100.00
6833;BME280;3454;42.654;23.378;2024-02-21T02:21:54;63509.00;;;5.56;100.00
6833;BME280;3454;42.654;23.378;2024-02-21T02:24:24;63526.75;;;5.70;100.00
6833;BME280;3454;42.654;23.378;2024-02-21T02:26:51;63528.94;;;5.72;100.00
6833;BME280;3454;42.654;23.378;2024-02-21T02:29:16;63521.53;;;5.67;100.00
6833;BME280;3454;42.654;23.378;2024-02-21T02:31:43;63509.31;;;5.54;100.00
6833;BME280;3454;42.654;23.378;2024-02-21T02:34:08;63509.31;;;5.54;100.00
6833;BME280;3454;42.654;23.378;2024-02-21T02:36:35;63506.28;;;5.53;100.00
6833;BME280;3454;42.654;23.378;2024-02-21T02:39:01;63501.72;;;5.47;100.00
6833;BME280;3454;42.654;23.378;2024-02-21T02:41:27;63497.69;;;5.41;100.00
6833;BME280;3454;42.654;23.378;2024-02-21T02:43:53;63507.94;;;5.55;100.00
6833;BME280;3454;42.654;23.378;2024-02-21T02:46:18;63509.78;;;5.59;100.00
6833;BME280;3454;42.654;23.378;2024-02-21T02:48:43;63521.53;;;5.67;100.00
6833;BME280;3454;42.654;23.378;2024-02-21T02:51:10;63537.09;;;5.79;100.00
6833;BME280;3454;42.654;23.378;2024-02-21T02:53:35;63540.38;;;5.82;100.00
6833;BME280;3454;42.654;23.378;2024-02-21T02:56:01;63532.19;;;5.75;100.00
6833;BME280;3454;42.654;23.378;2024-02-21T02:58:28;63522.72;;;5.64;100.00
6833;BME280;3454;42.654;23.378;2024-02-21T03:00:54;63538.19;;;5.80;100.00
6833;BME280;3454;42.654;23.378;2024-02-21T03:03:20;63546.91;;;5.88;100.00
6833;BME280;3454;42.654;23.378;2024-02-21T03:05:45;63560.00;;;6.01;100.00
6833;BME280;3454;42.654;23.378;2024-02-21T03:08:11;63554.56;;;5.96;100.00
6833;BME280;3454;42.654;23.378;2024-02-21T03:10:36;63569.81;;;6.10;100.00
6833;BME280;3454;42.654;23.378;2024-02-21T03:13:02;63568.94;;;6.11;100.00
6833;BME280;3454;42.654;23.378;2024-02-21T03:15:28;63552.06;;;5.96;100.00
6833;BME280;3454;42.654;23.378;2024-02-21T03:17:54;63543.13;;;5.85;100.00
6833;BME280;3454;42.654;23.378;2024-02-21T03:20:20;63525.66;;;5.69;100.00
6833;BME280;3454;42.654;23.378;2024-02-21T03:22:45;63525.66;;;5.69;100.00
6833;BME280;3454;42.654;23.378;2024-02-21T03:25:11;63528.59;;;5.74;100.00
6833;BME280;3454;42.654;23.378;2024-02-21T03:27:38;63535.25;;;5.75;100.00
6833;BME280;3454;42.654;23.378;2024-02-21T03:30:04;63545.53;;;5.89;100.00
6833;BME280;3454;42.654;23.378;2024-02-21T03:32:29;63534.38;;;5.77;100.00
6833;BME280;3454;42.654;23.378;2024-02-21T03:34:55;63534.94;;;5.77;100.00
6833;BME280;3454;42.654;23.378;2024-02-21T03:37:21;63530.34;;;5.71;100.00
6833;BME280;3454;42.654;23.378;2024-02-21T03:39:46;63539.28;;;5.81;100.00
6833;BME280;3454;42.654;23.378;2024-02-21T03:42:12;63523.16;;;5.69;100.00
6833;BME280;3454;42.654;23.378;2024-02-21T03:44:38;63545.53;;;5.89;100.00
6833;BME280;3454;42.654;23.378;2024-02-21T03:47:03;63529.16;;;5.74;100.00
6833;BME280;3454;42.654;23.378;2024-02-21T03:49:29;63540.91;;;5.83;100.00
6833;BME280;3454;42.654;23.378;2024-02-21T03:51:54;63543.13;;;5.85;100.00
6833;BME280;3454;42.654;23.378;2024-02-21T03:54:20;63521.88;;;5.65;100.00
6833;BME280;3454;42.654;23.378;2024-02-21T03:56:53;63537.88;;;5.82;100.00
6833;BME280;3454;42.654;23.378;2024-02-21T03:59:18;63524.78;;;5.70;100.00
6833;BME280;3454;42.654;23.378;2024-02-21T04:01:44;63530.56;;;5.73;100.00
6833;BME280;3454;42.654;23.378;2024-02-21T04:04:10;63522.84;;;5.71;100.00
6833;BME280;3454;42.654;23.378;2024-02-21T04:06:36;63532.19;;;5.75;100.00
6833;BME280;3454;42.654;23.378;2024-02-21T04:09:02;63536.00;;;5.78;100.00
6833;BME280;3454;42.654;23.378;2024-02-21T04:11:28;63508.69;;;5.58;100.00
6833;BME280;3454;42.654;23.378;2024-02-21T04:13:53;63511.50;;;5.56;100.00
6833;BME280;3454;42.654;23.378;2024-02-21T04:16:19;63521.00;;;5.67;100.00
6833;BME280;3454;42.654;23.378;2024-02-21T04:18:44;63521.53;;;5.67;100.00
6833;BME280;3454;42.654;23.378;2024-02-21T04:21:10;63525.66;;;5.69;100.00
6833;BME280;3454;42.654;23.378;2024-02-21T04:23:35;63510.97;;;5.55;100.00
6833;BME280;3454;42.654;23.378;2024-02-21T04:26:01;63497.34;;;5.43;100.00
6833;BME280;3454;42.654;23.378;2024-02-21T04:28:27;63489.41;;;5.38;100.00
6833;BME280;3454;42.654;23.378;2024-02-21T04:30:53;63498.75;;;5.42;100.00
6833;BME280;3454;42.654;23.378;2024-02-21T04:33:18;63487.03;;;5.33;100.00
6833;BME280;3454;42.654;23.378;2024-02-21T04:35:44;63487.56;;;5.34;100.00
6833;BME280;3454;42.654;23.378;2024-02-21T04:38:09;63488.31;;;5.37;100.00
6833;BME280;3454;42.654;23.378;2024-02-21T04:40:35;63490.50;;;5.39;100.00
6833;BME280;3454;42.654;23.378;2024-02-21T04:43:00;63502.47;;;5.50;100.00
6833;BME280;3454;42.654;23.378;2024-02-21T04:45:26;63488.09;;;5.34;100.00
6833;BME280;3454;42.654;23.378;2024-02-21T04:47:51;63488.09;;;5.34;100.00
6833;BME280;3454;42.654;23.378;2024-02-21T04:50:17;63479.94;;;5.27;100.00
6833;BME280;3454;42.654;23.378;2024-02-21T04:52:43;63503.03;;;5.50;100.00
6833;BME280;3454;42.654;23.378;2024-02-21T04:55:08;63504.66;;;5.52;100.00
6833;BME280;3454;42.654;23.378;2024-02-21T04:57:34;63516.41;;;5.60;100.00
6833;BME280;3454;42.654;23.378;2024-02-21T05:00:00;63482.03;;;5.33;100.00
6833;BME280;3454;42.654;23.378;2024-02-21T05:02:25;63496.72;;;5.47;100.00
6833;BME280;3454;42.654;23.378;2024-02-21T05:04:52;63488.66;;;5.35;100.00
6833;BME280;3454;42.654;23.378;2024-02-21T05:07:18;63497.78;;;5.48;100.00
6833;BME280;3454;42.654;23.378;2024-02-21T05:09:45;63521.88;;;5.65;100.00
6833;BME280;3454;42.654;23.378;2024-02-21T05:12:11;63544.50;;;5.84;100.00
6833;BME280;3454;42.654;23.378;2024-02-21T05:14:37;63551.50;;;5.95;100.00
6833;BME280;3454;42.654;23.378;2024-02-21T05:17:05;63561.09;;;6.02;100.00
6833;BME280;3454;42.654;23.378;2024-02-21T05:19:31;63583.22;;;6.20;100.00
6833;BME280;3454;42.654;23.378;2024-02-21T05:21:57;63576.22;;;6.20;100.00
6833;BME280;3454;42.654;23.378;2024-02-21T05:24:22;63588.56;;;6.29;100.00
6833;BME280;3454;42.654;23.378;2024-02-21T05:26:48;63588.31;;;6.27;100.00
6833;BME280;3454;42.654;23.378;2024-02-21T05:29:15;63598.66;;;6.36;100.00
6833;BME280;3454;42.654;23.378;2024-02-21T05:34:19;63611.44;;;6.50;100.00
6833;BME280;3454;42.654;23.378;2024-02-21T05:36:45;63596.16;;;6.36;100.00
6833;BME280;3454;42.654;23.378;2024-02-21T05:39:11;63600.00;;;6.40;100.00
6833;BME280;3454;42.654;23.378;2024-02-21T05:41:36;63600.53;;;6.40;100.00
6833;BME280;3454;42.654;23.378;2024-02-21T05:44:05;63612.84;;;6.49;100.00
6833;BME280;3454;42.654;23.378;2024-02-21T05:46:30;63649.91;;;6.84;100.00
6833;BME280;3454;42.654;23.378;2024-02-21T05:48:56;63649.59;;;6.86;100.00
6833;BME280;3454;42.654;23.378;2024-02-21T05:51:22;63672.81;;;7.05;100.00
6833;BME280;3454;42.654;23.378;2024-02-21T05:53:47;63655.69;;;6.87;100.00
6833;BME280;3454;42.654;23.378;2024-02-21T05:56:13;63659.75;;;6.93;100.00
6833;BME280;3454;42.654;23.378;2024-02-21T05:58:40;63663.78;;;6.99;100.00
6833;BME280;3454;42.654;23.378;2024-02-21T06:01:06;63667.38;;;7.00;100.00
6833;BME280;3454;42.654;23.378;2024-02-21T06:03:32;63666.28;;;6.99;100.00
6833;BME280;3454;42.654;23.378;2024-02-21T06:05:59;63740.91;;;7.72;100.00
6833;BME280;3454;42.654;23.378;2024-02-21T06:08:25;63911.66;;;9.27;100.00
6833;BME280;3454;42.654;23.378;2024-02-21T06:10:51;63890.88;;;9.08;100.00
6833;BME280;3454;42.654;23.378;2024-02-21T06:13:26;63858.09;;;8.78;100.00
6833;BME280;3454;42.654;23.378;2024-02-21T06:15:53;63835.47;;;8.55;100.00
6833;BME280;3454;42.654;23.378;2024-02-21T06:18:19;63799.09;;;8.23;100.00
6833;BME280;3454;42.654;23.378;2024-02-21T06:20:45;63778.31;;;8.04;100.00
6833;BME280;3454;42.654;23.378;2024-02-21T06:23:12;63752.13;;;7.80;100.00
6833;BME280;3454;42.654;23.378;2024-02-21T06:25:38;63736.53;;;7.68;100.00
6833;BME280;3454;42.654;23.378;2024-02-21T06:28:05;63729.56;;;7.57;100.00
6833;BME280;3454;42.654;23.378;2024-02-21T06:30:30;63695.41;;;7.28;100.00
6833;BME280;3454;42.654;23.378;2024-02-21T06:32:56;63717.00;;;7.45;100.00
6833;BME280;3454;42.654;23.378;2024-02-21T06:35:22;63719.94;;;7.50;100.00
6833;BME280;3454;42.654;23.378;2024-02-21T06:37:51;63731.41;;;7.61;100.00
6833;BME280;3454;42.654;23.378;2024-02-21T06:40:17;63740.13;;;7.69;100.00
6833;BME280;3454;42.654;23.378;2024-02-21T06:42:43;63740.91;;;7.72;100.00
6833;BME280;3454;42.654;23.378;2024-02-21T06:45:09;63741.22;;;7.70;100.00
6833;BME280;3454;42.654;23.378;2024-02-21T06:47:35;63724.31;;;7.54;100.00
6833;BME280;3454;42.654;23.378;2024-02-21T06:50:00;63727.03;;;7.57;100.00
6833;BME280;3454;42.654;23.378;2024-02-21T06:52:26;63719.41;;;7.50;100.00
6833;BME280;3454;42.654;23.378;2024-02-21T06:54:52;63714.47;;;7.45;100.00
6833;BME280;3454;42.654;23.378;2024-02-21T06:57:18;63709.59;;;7.41;100.00
6833;BME280;3454;42.654;23.378;2024-02-21T06:59:43;63724.31;;;7.54;100.00
6833;BME280;3454;42.654;23.378;2024-02-21T07:02:09;63731.72;;;7.59;100.00
6833;BME280;3454;42.654;23.378;2024-02-21T07:04:35;63728.13;;;7.58;100.00
6833;BME280;3454;42.654;23.378;2024-02-21T07:07:00;63735.00;;;7.62;100.00
6833;BME280;3454;42.654;23.378;2024-02-21T07:09:26;63687.00;;;7.18;100.00
6833;BME280;3454;42.654;23.378;2024-02-21T07:11:54;63653.63;;;6.92;100.00
6833;BME280;3454;42.654;23.378;2024-02-21T07:14:19;63682.31;;;7.16;100.00
6833;BME280;3454;42.654;23.378;2024-02-21T07:16:45;63715.81;;;7.49;100.00
6833;BME280;3454;42.654;23.378;2024-02-21T07:19:10;63724.88;;;7.55;100.00
6833;BME280;3454;42.654;23.378;2024-02-21T07:21:36;63748.09;;;7.74;100.00
6833;BME280;3454;42.654;23.378;2024-02-21T07:24:07;63742.53;;;7.74;100.00
6833;BME280;3454;42.654;23.378;2024-02-21T07:26:33;63755.75;;;7.81;100.00
6833;BME280;3454;42.654;23.378;2024-02-21T07:28:59;63751.81;;;7.82;100.00
6833;BME280;3454;42.654;23.378;2024-02-21T07:31:24;63748.31;;;7.77;100.00
6833;BME280;3454;42.654;23.378;2024-02-21T07:33:50;63757.81;;;7.88;100.00
6833;BME280;3454;42.654;23.378;2024-02-21T07:36:15;63764.81;;;7.87;100.00
6833;BME280;3454;42.654;23.378;2024-02-21T07:38:42;63717.22;;;7.48;100.00
6833;BME280;3454;42.654;23.378;2024-02-21T07:41:17;63715.34;;;7.44;100.00
6833;BME280;3454;42.654;23.378;2024-02-21T07:43:43;63706.53;;;7.40;100.00
6833;BME280;3454;42.654;23.378;2024-02-21T07:46:09;63699.22;;;7.31;100.00
6833;BME280;3454;42.654;23.378;2024-02-21T07:48:34;63742.09;;;7.69;100.00
6833;BME280;3454;42.654;23.378;2024-02-21T07:51:00;63730.31;;;7.60;100.00
6833;BME280;3454;42.654;23.378;2024-02-21T07:53:25;63697.56;;;7.30;100.00
6833;BME280;3454;42.654;23.378;2024-02-21T07:55:56;63726.59;;;7.52;100.00
6833;BME280;3454;42.654;23.378;2024-02-21T07:58:21;63727.81;;;7.60;100.00
6833;BME280;3454;42.654;23.378;2024-02-21T08:00:47;63731.72;;;7.59;100.00
6833;BME280;3454;42.654;23.378;2024-02-21T08:03:14;63752.13;;;7.80;100.00
6833;BME280;3454;42.654;23.378;2024-02-21T08:05:40;63749.94;;;7.78;100.00
6833;BME280;3454;42.654;23.378;2024-02-21T08:08:06;63743.41;;;7.72;100.00
6833;BME280;3454;42.654;23.378;2024-02-21T08:10:36;63689.94;;;7.23;100.00
6833;BME280;3454;42.654;23.378;2024-02-21T08:13:05;63711.22;;;7.42;100.00
6833;BME280;3454;42.654;23.378;2024-02-21T08:15:31;63690.47;;;7.23;100.00
6833;BME280;3454;42.654;23.378;2024-02-21T08:17:57;63697.91;;;7.28;100.00
6833;BME280;3454;42.654;23.378;2024-02-21T08:20:25;63696.81;;;7.27;100.00
6833;BME280;3454;42.654;23.378;2024-02-21T08:22:51;63716.13;;;7.47;100.00
6833;BME280;3454;42.654;23.378;2024-02-21T08:25:17;63708.81;;;7.38;100.00
6833;BME280;3454;42.654;23.378;2024-02-21T08:27:44;63701.38;;;7.33;100.00
6833;BME280;3454;42.654;23.378;2024-02-21T08:30:11;63714.47;;;7.45;100.00
6833;BME280;3454;42.654;23.378;2024-02-21T08:32:37;63703.91;;;7.33;100.00
6833;BME280;3454;42.654;23.378;2024-02-21T08:35:03;63735.78;;;7.65;100.00
6833;BME280;3454;42.654;23.378;2024-02-21T08:37:30;63798.84;;;8.21;100.00
6833;BME280;3454;42.654;23.378;2024-02-21T08:39:56;63844.41;;;8.65;100.00
6833;BME280;3454;42.654;23.378;2024-02-21T08:42:21;63799.09;;;8.23;100.00
6833;BME280;3454;42.654;23.378;2024-02-21T08:44:47;63786.53;;;8.12;100.00
6833;BME280;3454;42.654;23.378;2024-02-21T08:47:13;63780.84;;;8.04;100.00
6833;BME280;3454;42.654;23.378;2024-02-21T08:49:38;63776.69;;;8.03;98.90
6833;BME280;3454;42.654;23.378;2024-02-21T08:52:04;63789.03;;;8.12;97.86
6833;BME280;3454;42.654;23.378;2024-02-21T08:54:31;63810.03;;;8.33;98.21
6833;BME280;3454;42.654;23.378;2024-02-21T08:56:58;63806.75;;;8.30;99.31
6833;BME280;3454;42.654;23.378;2024-02-21T08:59:23;63799.63;;;8.24;100.00
6833;BME280;3454;42.654;23.378;2024-02-21T09:01:51;63787.94;;;8.11;99.19
6833;BME280;3454;42.654;23.378;2024-02-21T09:04:17;63813.84;;;8.37;99.26
6833;BME280;3454;42.654;23.378;2024-02-21T09:06:43;63823.13;;;8.45;98.00
6833;BME280;3454;42.654;23.378;2024-02-21T09:09:10;63842.78;;;8.64;98.79
6833;BME280;3454;42.654;23.378;2024-02-21T09:11:35;63865.84;;;8.80;98.38
6833;BME280;3454;42.654;23.378;2024-02-21T09:14:01;63877.19;;;8.95;97.68
6833;BME280;3454;42.654;23.378;2024-02-21T09:16:31;63852.94;;;8.71;95.69
6833;BME280;3454;42.654;23.378;2024-02-21T09:18:57;63828.59;;;8.51;96.34
6833;BME280;3454;42.654;23.378;2024-02-21T09:21:23;63829.34;;;8.54;97.85
6833;BME280;3454;42.654;23.378;2024-02-21T09:23:49;63813.63;;;8.34;96.49
6833;BME280;3454;42.654;23.378;2024-02-21T09:26:15;63856.66;;;8.79;96.58
6833;BME280;3454;42.654;23.378;2024-02-21T09:28:43;63830.75;;;8.53;95.55
6833;BME280;3454;42.654;23.378;2024-02-21T09:31:11;63811.44;;;8.32;98.91
6833;BME280;3454;42.654;23.378;2024-02-21T09:33:37;63844.41;;;8.65;98.95
6833;BME280;3454;42.654;23.378;2024-02-21T09:36:03;63836.00;;;8.55;96.95
6833;BME280;3454;42.654;23.378;2024-02-21T09:38:31;63834.59;;;8.56;97.53
6833;BME280;3454;42.654;23.378;2024-02-21T09:41:08;63860.59;;;8.78;95.98
6833;BME280;3454;42.654;23.378;2024-02-21T09:43:38;63838.97;;;8.60;96.03
6833;BME280;3454;42.654;23.378;2024-02-21T09:46:05;63794.16;;;8.19;98.30
6833;BME280;3454;42.654;23.378;2024-02-21T09:51:36;63826.94;;;8.49;99.14
6833;BME280;3454;42.654;23.378;2024-02-21T09:54:04;63867.38;;;8.86;100.00
6833;BME280;3454;42.654;23.378;2024-02-21T09:56:29;63902.66;;;9.16;97.79
6833;BME280;3454;42.654;23.378;2024-02-21T09:58:55;63880.50;;;8.98;94.66
6833;BME280;3454;42.654;23.378;2024-02-21T10:01:22;63866.28;;;8.85;92.68
6833;BME280;3454;42.654;23.378;2024-02-21T10:03:47;63883.00;;;8.98;93.28
6833;BME280;3454;42.654;23.378;2024-02-21T10:06:13;63883.53;;;8.99;90.96
6833;BME280;3454;42.654;23.378;2024-02-21T10:08:39;63879.16;;;8.95;92.53
6833;BME280;3454;42.654;23.378;2024-02-21T10:11:04;63887.28;;;9.07;91.31
6833;BME280;3454;42.654;23.378;2024-02-21T10:13:30;63864.97;;;8.82;87.11
6833;BME280;3454;42.654;23.378;2024-02-21T10:16:03;63881.34;;;8.97;88.22
6833;BME280;3454;42.654;23.378;2024-02-21T10:18:29;63901.47;;;9.20;88.66
6833;BME280;3454;42.654;23.378;2024-02-21T10:21:06;63859.94;;;8.82;84.55
6833;BME280;3454;42.654;23.378;2024-02-21T10:23:52;63872.28;;;8.91;83.97
6833;BME280;3454;42.654;23.378;2024-02-21T10:26:19;63832.63;;;8.57;85.50
6833;BME280;3454;42.654;23.378;2024-02-21T10:28:45;64039.63;;;10.45;100.00
6833;BME280;3454;42.654;23.378;2024-02-21T10:31:23;64269.16;;;12.55;100.00
6833;BME280;3454;42.654;23.378;2024-02-21T10:34:02;64065.34;;;10.68;79.75
6833;BME280;3454;42.654;23.378;2024-02-21T10:36:31;63965.53;;;9.74;86.11
6833;BME280;3454;42.654;23.378;2024-02-21T10:38:57;63914.59;;;9.32;86.11
6833;BME280;3454;42.654;23.378;2024-02-21T10:41:24;63913.06;;;9.26;86.33
6833;BME280;3454;42.654;23.378;2024-02-21T10:43:54;63897.97;;;9.14;80.98
6833;BME280;3454;42.654;23.378;2024-02-21T10:46:21;63908.56;;;9.26;80.83
6833;BME280;3454;42.654;23.378;2024-02-21T10:48:48;63949.91;;;9.62;82.70
6833;BME280;3454;42.654;23.378;2024-02-21T10:51:18;63979.09;;;9.91;79.97
6833;BME280;3454;42.654;23.378;2024-02-21T10:53:47;64002.16;;;10.08;81.25
6833;BME280;3454;42.654;23.378;2024-02-21T10:56:21;63949.91;;;9.62;79.51
6833;BME280;3454;42.654;23.378;2024-02-21T10:58:49;63968.50;;;9.79;78.60
6833;BME280;3454;42.654;23.378;2024-02-21T11:01:17;63953.38;;;9.68;78.90
6833;BME280;3454;42.654;23.378;2024-02-21T11:03:45;64004.59;;;10.12;77.65
6833;BME280;3454;42.654;23.378;2024-02-21T11:06:12;64030.09;;;10.34;76.91
6833;BME280;3454;42.654;23.378;2024-02-21T11:08:38;64048.16;;;10.50;75.28
6833;BME280;3454;42.654;23.378;2024-02-21T11:11:05;64102.03;;;11.02;73.83
6833;BME280;3454;42.654;23.378;2024-02-21T11:13:37;64059.53;;;10.65;71.55
6833;BME280;3454;42.654;23.378;2024-02-21T11:16:10;64023.75;;;10.30;72.49
6833;BME280;3454;42.654;23.378;2024-02-21T11:18:40;64029.44;;;10.38;73.79
6833;BME280;3454;42.654;23.378;2024-02-21T11:21:06;64072.78;;;10.73;72.61
6833;BME280;3454;42.654;23.378;2024-02-21T11:23:32;64025.97;;;10.32;71.01
6833;BME280;3454;42.654;23.378;2024-02-21T11:26:10;64002.09;;;10.12;70.16
6833;BME280;3454;42.654;23.378;2024-02-21T11:28:44;64022.88;;;10.32;72.05
6833;BME280;3454;42.654;23.378;2024-02-21T11:31:13;64062.63;;;10.66;69.48
6833;BME280;3454;42.654;23.378;2024-02-21T11:33:40;63993.09;;;10.02;65.11
6833;BME280;3454;42.654;23.378;2024-02-21T11:36:08;64000.75;;;10.09;65.58
6833;BME280;3454;42.654;23.378;2024-02-21T11:38:33;64042.59;;;10.50;63.74
6833;BME280;3454;42.654;23.378;2024-02-21T11:40:59;64024.31;;;10.31;67.49
6833;BME280;3454;42.654;23.378;2024-02-21T11:43:24;64058.66;;;10.67;63.91
6833;BME280;3454;42.654;23.378;2024-02-21T11:45:57;64083.94;;;10.85;64.36
6833;BME280;3454;42.654;23.378;2024-02-21T11:48:24;64088.00;;;10.91;63.29
6833;BME280;3454;42.654;23.378;2024-02-21T11:50:56;64065.88;;;10.69;63.26
6833;BME280;3454;42.654;23.378;2024-02-21T11:53:23;64007.91;;;10.16;65.86
6833;BME280;3454;42.654;23.378;2024-02-21T11:55:49;63986.53;;;9.96;67.94
6833;BME280;3454;42.654;23.378;2024-02-21T11:58:16;63969.56;;;9.80;69.11
6833;BME280;3454;42.654;23.378;2024-02-21T12:00:42;63961.16;;;9.70;67.95
6833;BME280;3454;42.654;23.378;2024-02-21T12:03:08;63959.75;;;9.71;68.82
6833;BME280;3454;42.654;23.378;2024-02-21T12:05:35;63982.94;;;9.95;68.77
6833;BME280;3454;42.654;23.378;2024-02-21T12:08:00;63968.50;;;9.79;66.54
6833;BME280;3454;42.654;23.378;2024-02-21T12:10:26;63954.03;;;9.64;67.97
6833;BME280;3454;42.654;23.378;2024-02-21T12:13:10;63936.22;;;9.50;68.61
6833;BME280;3454;42.654;23.378;2024-02-21T12:15:38;63954.50;;;9.69;68.48
6833;BME280;3454;42.654;23.378;2024-02-21T12:18:06;63971.78;;;9.82;68.28
6833;BME280;3454;42.654;23.378;2024-02-21T12:20:31;63970.13;;;9.81;67.48
6833;BME280;3454;42.654;23.378;2024-02-21T12:23:01;63971.53;;;9.80;68.30
6833;BME280;3454;42.654;23.378;2024-02-21T12:25:28;63948.47;;;9.63;69.14
6833;BME280;3454;42.654;23.378;2024-02-21T12:27:54;63969.81;;;9.83;68.67
6833;BME280;3454;42.654;23.378;2024-02-21T12:30:21;63993.97;;;10.00;68.99
6833;BME280;3454;42.654;23.378;2024-02-21T12:32:47;63970.13;;;9.81;70.11
6833;BME280;3454;42.654;23.378;2024-02-21T12:35:14;63935.38;;;9.51;70.89
6833;BME280;3454;42.654;23.378;2024-02-21T12:37:40;63930.75;;;9.45;71.26
6833;BME280;3454;42.654;23.378;2024-02-21T12:40:08;63924.75;;;9.39;71.73
6833;BME280;3454;42.654;23.378;2024-02-21T12:42:34;63925.63;;;9.38;71.51
6833;BME280;3454;42.654;23.378;2024-02-21T12:45:00;63917.66;;;9.32;70.72
6833;BME280;3454;42.654;23.378;2024-02-21T12:47:25;63914.91;;;9.30;70.44
6833;BME280;3454;42.654;23.378;2024-02-21T12:49:52;63914.91;;;9.30;70.98
6833;BME280;3454;42.654;23.378;2024-02-21T12:52:18;63918.72;;;9.33;71.10
6833;BME280;3454;42.654;23.378;2024-02-21T12:54:44;63919.28;;;9.34;71.84
6833;BME280;3454;42.654;23.378;2024-02-21T12:57:09;63915.25;;;9.28;71.79
6833;BME280;3454;42.654;23.378;2024-02-21T12:59:35;63912.94;;;9.30;71.32
6833;BME280;3454;42.654;23.378;2024-02-21T13:02:00;63929.47;;;9.41;70.09
6833;BME280;3454;42.654;23.378;2024-02-21T13:04:26;63882.13;;;9.00;71.28
6833;BME280;3454;42.654;23.378;2024-02-21T13:06:52;63905.09;;;9.21;72.25
6833;BME280;3454;42.654;23.378;2024-02-21T13:09:17;63896.34;;;9.13;73.26
6833;BME280;3454;42.654;23.378;2024-02-21T13:11:44;63903.75;;;9.17;75.13
6833;BME280;3454;42.654;23.378;2024-02-21T13:14:11;63901.78;;;9.18;78.25